sensor_id;sensor_type;location;lat;lon;timestamp;pressure;altitude;pressure_sealevel;temperature;humidity
39405;BME280;25121;51.090;17.038;2022-10-22T06:02:33;99800.94;;;10.49;71.07
39405;BME280;25121;51.090;17.038;2022-10-22T06:05:21;99800.47;;;10.60;72.74
39405;BME280;25121;51.090;17.038;2022-10-22T06:08:10;99788.94;;;10.74;73.83
39405;BME280;25121;51.090;17.038;2022-10-22T06:32:32;99776.59;;;11.10;72.70
39405;BME280;25121;51.090;17.038;2022-10-22T06:35:20;99779.00;;;11.19;74.01
39405;BME280;25121;51.090;17.038;2022-10-22T06:38:08;99790.97;;;11.32;75.04
39405;BME280;25121;51.090;17.038;2022-10-22T10:02:31;99867.38;;;12.18;74.59
39405;BME280;25121;51.090;17.038;2022-10-22T10:05:29;99877.44;;;12.31;76.12
39405;BME280;25121;51.090;17.038;2022-10-22T10:08:19;99878.63;;;12.43;77.24
39405;BME280;25121;51.090;17.038;2022-10-22T10:33:08;99875.69;;;12.66;75.36
39405;BME280;25121;51.090;17.038;2022-10-22T10:36:05;99883.47;;;12.76;76.48
39405;BME280;25121;51.090;17.038;2022-10-22T10:39:02;99892.06;;;12.86;77.34
39405;BME280;25121;51.090;17.038;2022-10-22T14:02:32;99886.88;;;12.63;75.84
39405;BME280;25121;51.090;17.038;2022-10-22T14:05:20;99891.31;;;12.71;77.68
39405;BME280;25121;51.090;17.038;2022-10-22T14:08:11;99889.75;;;12.83;79.12
39405;BME280;25121;51.090;17.038;2022-10-22T14:32:33;99903.53;;;12.95;77.53
39405;BME280;25121;51.090;17.038;2022-10-22T14:35:22;99906.50;;;13.00;78.96
39405;BME280;25121;51.090;17.038;2022-10-22T14:38:10;99909.28;;;13.13;80.05
39405;BME280;25121;51.090;17.038;2022-10-22T18:02:34;100106.56;;;12.53;77.57
39405;BME280;25121;51.090;17.038;2022-10-22T18:05:24;100106.28;;;12.62;79.39
39405;BME280;25121;51.090;17.038;2022-10-22T18:08:11;100109.13;;;12.76;80.62
39405;BME280;25121;51.090;17.038;2022-10-22T18:32:33;100117.75;;;12.86;79.30
39405;BME280;25121;51.090;17.038;2022-10-22T18:35:46;100125.16;;;12.99;80.69
39405;BME280;25121;51.090;17.038;2022-10-22T18:38:34;100120.50;;;13.07;81.66
39405;BME280;25121;51.090;17.038;2022-10-22T18:41:23;100117.09;;;13.20;82.38
39405;BME280;25121;51.090;17.038;2022-10-22T18:44:13;100113.06;;;13.31;82.75
39405;BME280;25121;51.090;17.038;2022-10-22T18:47:01;100123.16;;;13.44;82.94
39405;BME280;25121;51.090;17.038;2022-10-22T18:49:48;100121.00;;;13.54;83.09
39405;BME280;25121;51.090;17.038;2022-10-22T18:52:38;100123.34;;;13.64;83.00
39405;BME280;25121;51.090;17.038;2022-10-22T18:55:29;100128.41;;;13.73;82.89
39405;BME280;25121;51.090;17.038;2022-10-22T18:58:16;100124.72;;;13.81;83.00
39405;BME280;25121;51.090;17.038;2022-10-22T19:01:09;100134.38;;;13.90;82.71
39405;BME280;25121;51.090;17.038;2022-10-22T19:03:56;100137.13;;;13.97;82.68
39405;BME280;25121;51.090;17.038;2022-10-22T19:06:44;100132.97;;;14.01;82.41
39405;BME280;25121;51.090;17.038;2022-10-22T19:09:37;100137.63;;;14.07;82.29
39405;BME280;25121;51.090;17.038;2022-10-22T19:12:25;100143.91;;;14.14;81.93
39405;BME280;25121;51.090;17.038;2022-10-22T19:15:12;100137.91;;;14.19;81.89
39405;BME280;25121;51.090;17.038;2022-10-22T19:18:00;100142.09;;;14.21;81.66
39405;BME280;25121;51.090;17.038;2022-10-22T19:20:55;100143.34;;;14.26;81.47
39405;BME280;25121;51.090;17.038;2022-10-22T19:23:43;100147.16;;;14.31;81.22
39405;BME280;25121;51.090;17.038;2022-10-22T19:26:33;100152.16;;;14.34;80.79
39405;BME280;25121;51.090;17.038;2022-10-22T19:29:20;100160.03;;;14.36;80.74
39405;BME280;25121;51.090;17.038;2022-10-22T19:32:08;100162.16;;;14.40;80.39
39405;BME280;25121;51.090;17.038;2022-10-22T19:34:56;100161.31;;;14.40;80.27
39405;BME280;25121;51.090;17.038;2022-10-22T19:37:44;100171.34;;;14.46;80.22
39405;BME280;25121;51.090;17.038;2022-10-22T19:40:33;100174.88;;;14.47;80.05
39405;BME280;25121;51.090;17.038;2022-10-22T19:43:22;100173.66;;;14.49;79.82
39405;BME280;25121;51.090;17.038;2022-10-22T19:46:11;100176.16;;;14.51;79.74
39405;BME280;25121;51.090;17.038;2022-10-22T19:49:01;100178.66;;;14.52;79.56
39405;BME280;25121;51.090;17.038;2022-10-22T19:51:49;100177.66;;;14.53;79.44
39405;BME280;25121;51.090;17.038;2022-10-22T19:54:36;100184.56;;;14.56;79.31
39405;BME280;25121;51.090;17.038;2022-10-22T19:57:25;100180.81;;;14.57;79.22
39405;BME280;25121;51.090;17.038;2022-10-22T20:00:14;100181.63;;;14.57;79.26
39405;BME280;25121;51.090;17.038;2022-10-22T20:03:05;100193.09;;;14.59;79.10
39405;BME280;25121;51.090;17.038;2022-10-22T20:05:53;100184.97;;;14.59;78.95
39405;BME280;25121;51.090;17.038;2022-10-22T20:08:41;100191.22;;;14.60;78.72
39405;BME280;25121;51.090;17.038;2022-10-22T20:11:29;100200.16;;;14.60;78.65
39405;BME280;25121;51.090;17.038;2022-10-22T20:14:17;100200.38;;;14.59;78.52
39405;BME280;25121;51.090;17.038;2022-10-22T20:17:05;100205.56;;;14.60;78.58
39405;BME280;25121;51.090;17.038;2022-10-22T20:19:53;100202.88;;;14.60;78.37
39405;BME280;25121;51.090;17.038;2022-10-22T20:22:42;100202.88;;;14.60;78.34
39405;BME280;25121;51.090;17.038;2022-10-22T20:25:29;100200.16;;;14.60;78.25
39405;BME280;25121;51.090;17.038;2022-10-22T20:28:17;100202.88;;;14.60;78.20
39405;BME280;25121;51.090;17.038;2022-10-22T20:31:08;100207.66;;;14.58;78.01
39405;BME280;25121;51.090;17.038;2022-10-22T20:33:59;100203.91;;;14.59;78.35
39405;BME280;25121;51.090;17.038;2022-10-22T20:36:47;100212.03;;;14.59;77.92
39405;BME280;25121;51.090;17.038;2022-10-22T20:39:34;100199.56;;;14.58;77.87
39405;BME280;25121;51.090;17.038;2022-10-22T20:42:22;100198.50;;;14.59;77.86
39405;BME280;25121;51.090;17.038;2022-10-22T20:45:09;100204.97;;;14.58;77.75
39405;BME280;25121;51.090;17.038;2022-10-22T20:47:57;100214.91;;;14.58;77.60
39405;BME280;25121;51.090;17.038;2022-10-22T20:50:49;100215.78;;;14.58;77.62
39405;BME280;25121;51.090;17.038;2022-10-22T20:53:37;100211.38;;;14.57;77.42
39405;BME280;25121;51.090;17.038;2022-10-22T20:56:24;100210.75;;;14.55;77.37
39405;BME280;25121;51.090;17.038;2022-10-22T20:59:12;100213.44;;;14.55;77.27
39405;BME280;25121;51.090;17.038;2022-10-22T21:02:00;100217.34;;;14.53;77.30
39405;BME280;25121;51.090;17.038;2022-10-22T21:04:48;100218.22;;;14.53;77.17
39405;BME280;25121;51.090;17.038;2022-10-22T21:07:37;100219.22;;;14.52;77.01
39405;BME280;25121;51.090;17.038;2022-10-22T21:10:25;100223.16;;;14.50;77.01
39405;BME280;25121;51.090;17.038;2022-10-22T21:13:17;100222.31;;;14.49;77.02
39405;BME280;25121;51.090;17.038;2022-10-22T21:16:09;100223.16;;;14.50;76.99
39405;BME280;25121;51.090;17.038;2022-10-22T21:18:57;100218.97;;;14.47;76.90
39405;BME280;25121;51.090;17.038;2022-10-22T21:21:45;100232.69;;;14.46;76.84
39405;BME280;25121;51.090;17.038;2022-10-22T21:24:34;100229.16;;;14.45;76.77
39405;BME280;25121;51.090;17.038;2022-10-22T21:27:21;100224.78;;;14.44;76.69
39405;BME280;25121;51.090;17.038;2022-10-22T21:30:10;100216.03;;;14.42;76.58
39405;BME280;25121;51.090;17.038;2022-10-22T21:32:57;100219.78;;;14.41;76.55
39405;BME280;25121;51.090;17.038;2022-10-22T21:35:50;100226.03;;;14.41;76.70
39405;BME280;25121;51.090;17.038;2022-10-22T21:38:38;100225.38;;;14.39;76.64
39405;BME280;25121;51.090;17.038;2022-10-22T21:41:27;100230.78;;;14.39;76.72
39405;BME280;25121;51.090;17.038;2022-10-22T21:44:15;100232.66;;;14.39;76.80
39405;BME280;25121;51.090;17.038;2022-10-22T21:47:02;100238.06;;;14.39;76.84
39405;BME280;25121;51.090;17.038;2022-10-22T21:49:49;100236.38;;;14.38;76.83
39405;BME280;25121;51.090;17.038;2022-10-22T21:52:39;100231.81;;;14.38;76.80
39405;BME280;25121;51.090;17.038;2022-10-22T21:55:27;100243.47;;;14.39;76.89
39405;BME280;25121;51.090;17.038;2022-10-22T21:58:18;100240.78;;;14.39;76.91
39405;BME280;25121;51.090;17.038;2022-10-22T22:01:06;100238.06;;;14.39;76.89
39405;BME280;25121;51.090;17.038;2022-10-22T22:03:54;100242.66;;;14.38;76.80
39405;BME280;25121;51.090;17.038;2022-10-22T22:06:41;100237.22;;;14.38;76.86
39405;BME280;25121;51.090;17.038;2022-10-22T22:09:29;100241.78;;;14.38;76.86
39405;BME280;25121;51.090;17.038;2022-10-22T22:12:17;100236.78;;;14.35;76.60
39405;BME280;25121;51.090;17.038;2022-10-22T22:15:11;100248.22;;;14.37;76.77
39405;BME280;25121;51.090;17.038;2022-10-22T22:17:58;100248.22;;;14.37;76.58
39405;BME280;25121;51.090;17.038;2022-10-22T22:20:46;100258.00;;;14.38;76.56
39405;BME280;25121;51.090;17.038;2022-10-22T22:23:36;100255.50;;;14.36;76.37
39405;BME280;25121;51.090;17.038;2022-10-22T22:26:27;100257.34;;;14.36;75.81
39405;BME280;25121;51.090;17.038;2022-10-22T22:29:15;100249.47;;;14.34;76.12
39405;BME280;25121;51.090;17.038;2022-10-22T22:32:04;100252.16;;;14.34;76.22
39405;BME280;25121;51.090;17.038;2022-10-22T22:34:52;100254.03;;;14.34;75.93
39405;BME280;25121;51.090;17.038;2022-10-22T22:37:39;100256.94;;;14.32;76.04
39405;BME280;25121;51.090;17.038;2022-10-22T22:40:29;100256.28;;;14.30;75.79
39405;BME280;25121;51.090;17.038;2022-10-22T22:43:18;100260.03;;;14.29;75.71
39405;BME280;25121;51.090;17.038;2022-10-22T22:46:09;100259.38;;;14.27;75.46
39405;BME280;25121;51.090;17.038;2022-10-22T22:48:59;100255.84;;;14.27;75.45
39405;BME280;25121;51.090;17.038;2022-10-22T22:51:48;100252.69;;;14.23;75.47
39405;BME280;25121;51.090;17.038;2022-10-22T22:54:35;100265.38;;;14.22;75.52
39405;BME280;25121;51.090;17.038;2022-10-22T22:57:22;100256.44;;;14.22;75.39
39405;BME280;25121;51.090;17.038;2022-10-22T23:00:11;100263.06;;;14.19;75.26
39405;BME280;25121;51.090;17.038;2022-10-22T23:02:59;100260.34;;;14.19;75.38
39405;BME280;25121;51.090;17.038;2022-10-22T23:05:49;100259.72;;;14.17;75.25
39405;BME280;25121;51.090;17.038;2022-10-22T23:08:37;100259.06;;;14.15;75.18
39405;BME280;25121;51.090;17.038;2022-10-22T23:11:25;100253.22;;;14.12;75.09
39405;BME280;25121;51.090;17.038;2022-10-22T23:14:16;100255.72;;;14.13;75.09
39405;BME280;25121;51.090;17.038;2022-10-22T23:17:04;100258.63;;;14.12;75.39
39405;BME280;25121;51.090;17.038;2022-10-22T23:19:51;100265.06;;;14.11;75.18
39405;BME280;25121;51.090;17.038;2022-10-22T23:22:42;100264.44;;;14.09;75.08
39405;BME280;25121;51.090;17.038;2022-10-22T23:25:30;100270.84;;;14.08;75.16
39405;BME280;25121;51.090;17.038;2022-10-22T23:28:17;100269.19;;;14.07;74.99
39405;BME280;25121;51.090;17.038;2022-10-22T23:31:05;100262.09;;;14.06;75.08
39405;BME280;25121;51.090;17.038;2022-10-22T23:33:53;100271.25;;;14.05;74.95
39405;BME280;25121;51.090;17.038;2022-10-22T23:36:40;100265.84;;;14.05;75.06
39405;BME280;25121;51.090;17.038;2022-10-22T23:39:29;100259.78;;;14.03;75.13
39405;BME280;25121;51.090;17.038;2022-10-22T23:42:16;100262.50;;;14.03;75.12
39405;BME280;25121;51.090;17.038;2022-10-22T23:45:05;100266.22;;;14.02;74.92
39405;BME280;25121;51.090;17.038;2022-10-22T23:47:53;100269.50;;;13.97;74.91
39405;BME280;25121;51.090;17.038;2022-10-22T23:50:40;100271.81;;;14.00;75.01
39405;BME280;25121;51.090;17.038;2022-10-22T23:53:27;100272.88;;;13.99;74.90
39405;BME280;25121;51.090;17.038;2022-10-22T23:56:17;100272.00;;;13.98;74.86
39405;BME280;25121;51.090;17.038;2022-10-22T23:59:06;100275.09;;;13.95;74.97
